sensor_id;sensor_type;location;lat;lon;timestamp;temperature;humidity
5023;DHT22;2530;47.990;7.866;2023-06-22T00:01:51;20.10;99.90
5023;DHT22;2530;47.990;7.866;2023-06-22T00:04:16;20.00;99.90
5023;DHT22;2530;47.990;7.866;2023-06-22T00:06:42;20.10;99.90
5023;DHT22;2530;47.990;7.866;2023-06-22T00:09:07;20.00;99.90
5023;DHT22;2530;47.990;7.866;2023-06-22T00:11:33;19.80;99.90
5023;DHT22;2530;47.990;7.866;2023-06-22T00:14:02;19.90;99.90
5023;DHT22;2530;47.990;7.866;2023-06-22T00:16:27;18.80;99.90
5023;DHT22;2530;47.990;7.866;2023-06-22T00:18:53;19.90;99.90
5023;DHT22;2530;47.990;7.866;2023-06-22T00:21:18;19.70;99.90
5023;DHT22;2530;47.990;7.866;2023-06-22T00:23:46;19.50;99.90
5023;DHT22;2530;47.990;7.866;2023-06-22T00:26:11;19.70;99.90
5023;DHT22;2530;47.990;7.866;2023-06-22T00:28:37;22.30;99.90
5023;DHT22;2530;47.990;7.866;2023-06-22T00:31:02;18.50;99.90
5023;DHT22;2530;47.990;7.866;2023-06-22T00:33:28;19.70;99.90
5023;DHT22;2530;47.990;7.866;2023-06-22T00:35:54;18.90;99.90
5023;DHT22;2530;47.990;7.866;2023-06-22T00:38:19;19.80;99.90
5023;DHT22;2530;47.990;7.866;2023-06-22T00:40:45;19.10;99.90
5023;DHT22;2530;47.990;7.866;2023-06-22T00:43:11;18.10;99.90
5023;DHT22;2530;47.990;7.866;2023-06-22T00:45:36;19.60;99.90
5023;DHT22;2530;47.990;7.866;2023-06-22T00:48:02;19.60;99.90
5023;DHT22;2530;47.990;7.866;2023-06-22T00:50:33;19.80;99.90
5023;DHT22;2530;47.990;7.866;2023-06-22T00:53:00;19.60;99.90
5023;DHT22;2530;47.990;7.866;2023-06-22T00:55:26;19.70;99.90
5023;DHT22;2530;47.990;7.866;2023-06-22T00:57:53;19.50;99.90
5023;DHT22;2530;47.990;7.866;2023-06-22T01:00:23;19.60;99.90
5023;DHT22;2530;47.990;7.866;2023-06-22T01:02:50;19.40;99.90
5023;DHT22;2530;47.990;7.866;2023-06-22T01:05:20;19.50;99.90
5023;DHT22;2530;47.990;7.866;2023-06-22T01:10:44;19.50;99.90
5023;DHT22;2530;47.990;7.866;2023-06-22T01:16:10;19.40;99.90
5023;DHT22;2530;47.990;7.866;2023-06-22T01:18:42;19.50;99.90
5023;DHT22;2530;47.990;7.866;2023-06-22T01:21:14;19.40;99.90
5023;DHT22;2530;47.990;7.866;2023-06-22T01:26:44;19.40;99.90
5023;DHT22;2530;47.990;7.866;2023-06-22T01:29:15;19.40;99.90
5023;DHT22;2530;47.990;7.866;2023-06-22T01:31:42;18.40;99.90
5023;DHT22;2530;47.990;7.866;2023-06-22T01:34:11;19.30;99.90
5023;DHT22;2530;47.990;7.866;2023-06-22T01:36:38;18.70;99.90
5023;DHT22;2530;47.990;7.866;2023-06-22T01:39:05;19.10;99.90
5023;DHT22;2530;47.990;7.866;2023-06-22T01:41:38;18.00;99.90
5023;DHT22;2530;47.990;7.866;2023-06-22T01:44:05;19.40;99.90
5023;DHT22;2530;47.990;7.866;2023-06-22T01:46:38;19.80;99.90
5023;DHT22;2530;47.990;7.866;2023-06-22T01:49:05;19.20;99.90
5023;DHT22;2530;47.990;7.866;2023-06-22T01:51:31;19.20;99.90
5023;DHT22;2530;47.990;7.866;2023-06-22T01:53:57;19.20;99.90
5023;DHT22;2530;47.990;7.866;2023-06-22T01:56:22;21.00;99.90
5023;DHT22;2530;47.990;7.866;2023-06-22T01:59:11;18.40;99.90
5023;DHT22;2530;47.990;7.866;2023-06-22T02:02:02;19.10;99.90
5023;DHT22;2530;47.990;7.866;2023-06-22T02:04:36;19.10;99.90
5023;DHT22;2530;47.990;7.866;2023-06-22T02:07:05;18.50;99.90
5023;DHT22;2530;47.990;7.866;2023-06-22T02:09:35;19.20;99.90
5023;DHT22;2530;47.990;7.866;2023-06-22T02:12:04;19.00;99.90
5023;DHT22;2530;47.990;7.866;2023-06-22T02:14:30;19.10;99.90
5023;DHT22;2530;47.990;7.866;2023-06-22T02:16:56;19.00;99.90
5023;DHT22;2530;47.990;7.866;2023-06-22T02:19:24;19.20;99.90
5023;DHT22;2530;47.990;7.866;2023-06-22T02:21:50;18.30;99.90
5023;DHT22;2530;47.990;7.866;2023-06-22T02:24:16;20.00;99.90
5023;DHT22;2530;47.990;7.866;2023-06-22T02:26:43;20.50;99.90
5023;DHT22;2530;47.990;7.866;2023-06-22T02:29:10;19.10;99.90
5023;DHT22;2530;47.990;7.866;2023-06-22T02:31:36;19.10;99.90
5023;DHT22;2530;47.990;7.866;2023-06-22T02:34:02;18.40;99.90
5023;DHT22;2530;47.990;7.866;2023-06-22T02:36:27;18.10;99.90
5023;DHT22;2530;47.990;7.866;2023-06-22T02:38:55;19.00;99.90
5023;DHT22;2530;47.990;7.866;2023-06-22T02:41:26;18.40;99.90
5023;DHT22;2530;47.990;7.866;2023-06-22T02:43:51;19.80;99.90
5023;DHT22;2530;47.990;7.866;2023-06-22T02:46:17;19.40;99.90
5023;DHT22;2530;47.990;7.866;2023-06-22T02:48:43;17.90;99.90
5023;DHT22;2530;47.990;7.866;2023-06-22T02:51:08;18.40;99.90
5023;DHT22;2530;47.990;7.866;2023-06-22T02:53:34;18.40;99.90
5023;DHT22;2530;47.990;7.866;2023-06-22T02:56:01;18.70;99.90
5023;DHT22;2530;47.990;7.866;2023-06-22T02:58:28;21.70;99.90
5023;DHT22;2530;47.990;7.866;2023-06-22T03:00:54;18.80;99.90
5023;DHT22;2530;47.990;7.866;2023-06-22T03:03:19;18.70;99.90
5023;DHT22;2530;47.990;7.866;2023-06-22T03:05:45;18.20;99.90
5023;DHT22;2530;47.990;7.866;2023-06-22T03:08:11;17.80;99.90
5023;DHT22;2530;47.990;7.866;2023-06-22T03:10:36;17.90;99.90
5023;DHT22;2530;47.990;7.866;2023-06-22T03:13:02;18.30;99.90
5023;DHT22;2530;47.990;7.866;2023-06-22T03:15:28;17.60;99.90
5023;DHT22;2530;47.990;7.866;2023-06-22T03:17:55;18.60;99.90
5023;DHT22;2530;47.990;7.866;2023-06-22T03:20:20;20.60;99.90
5023;DHT22;2530;47.990;7.866;2023-06-22T03:22:46;17.40;99.90
5023;DHT22;2530;47.990;7.866;2023-06-22T03:25:14;18.80;99.90
5023;DHT22;2530;47.990;7.866;2023-06-22T03:27:40;18.70;99.90
5023;DHT22;2530;47.990;7.866;2023-06-22T03:30:08;18.90;99.90
5023;DHT22;2530;47.990;7.866;2023-06-22T03:32:34;18.90;99.90
5023;DHT22;2530;47.990;7.866;2023-06-22T03:34:59;18.70;99.90
5023;DHT22;2530;47.990;7.866;2023-06-22T03:37:25;18.90;99.90
5023;DHT22;2530;47.990;7.866;2023-06-22T03:39:51;18.80;99.90
5023;DHT22;2530;47.990;7.866;2023-06-22T03:42:17;17.80;99.90
5023;DHT22;2530;47.990;7.866;2023-06-22T03:44:43;17.80;99.90
5023;DHT22;2530;47.990;7.866;2023-06-22T03:47:08;18.70;99.90
5023;DHT22;2530;47.990;7.866;2023-06-22T03:49:35;18.00;99.90
5023;DHT22;2530;47.990;7.866;2023-06-22T03:52:01;18.90;99.90
5023;DHT22;2530;47.990;7.866;2023-06-22T03:54:29;21.30;99.90
5023;DHT22;2530;47.990;7.866;2023-06-22T03:56:56;18.00;99.90
5023;DHT22;2530;47.990;7.866;2023-06-22T03:59:21;18.60;99.90
5023;DHT22;2530;47.990;7.866;2023-06-22T04:01:47;18.50;99.90
5023;DHT22;2530;47.990;7.866;2023-06-22T04:04:12;20.50;99.90
5023;DHT22;2530;47.990;7.866;2023-06-22T04:06:38;18.50;99.90
5023;DHT22;2530;47.990;7.866;2023-06-22T04:09:05;18.40;99.90
5023;DHT22;2530;47.990;7.866;2023-06-22T04:11:30;18.10;99.90
5023;DHT22;2530;47.990;7.866;2023-06-22T04:13:56;18.00;99.90
5023;DHT22;2530;47.990;7.866;2023-06-22T04:16:22;17.50;99.90
5023;DHT22;2530;47.990;7.866;2023-06-22T04:18:47;17.70;99.90
5023;DHT22;2530;47.990;7.866;2023-06-22T04:21:13;18.70;99.90
5023;DHT22;2530;47.990;7.866;2023-06-22T04:23:39;19.80;99.90
5023;DHT22;2530;47.990;7.866;2023-06-22T04:26:04;17.80;99.90
5023;DHT22;2530;47.990;7.866;2023-06-22T04:28:30;18.50;99.90
5023;DHT22;2530;47.990;7.866;2023-06-22T04:31:01;17.70;99.90
5023;DHT22;2530;47.990;7.866;2023-06-22T04:33:27;20.50;99.90
5023;DHT22;2530;47.990;7.866;2023-06-22T04:35:57;18.80;99.90
5023;DHT22;2530;47.990;7.866;2023-06-22T04:38:24;18.50;99.90
5023;DHT22;2530;47.990;7.866;2023-06-22T04:40:50;18.70;99.90
5023;DHT22;2530;47.990;7.866;2023-06-22T04:43:16;18.80;99.90
5023;DHT22;2530;47.990;7.866;2023-06-22T04:45:41;18.60;99.90
5023;DHT22;2530;47.990;7.866;2023-06-22T04:48:07;18.70;99.90
5023;DHT22;2530;47.990;7.866;2023-06-22T04:50:50;18.70;99.90
5023;DHT22;2530;47.990;7.866;2023-06-22T04:53:41;18.80;99.90
5023;DHT22;2530;47.990;7.866;2023-06-22T04:56:07;18.90;99.90
5023;DHT22;2530;47.990;7.866;2023-06-22T04:58:33;19.00;99.90
5023;DHT22;2530;47.990;7.866;2023-06-22T05:01:01;18.90;99.90
5023;DHT22;2530;47.990;7.866;2023-06-22T05:03:29;18.90;99.90
5023;DHT22;2530;47.990;7.866;2023-06-22T05:05:54;19.10;99.90
5023;DHT22;2530;47.990;7.866;2023-06-22T05:08:20;19.00;99.90
5023;DHT22;2530;47.990;7.866;2023-06-22T05:13:14;19.10;99.90
5023;DHT22;2530;47.990;7.866;2023-06-22T05:15:39;19.30;99.90
5023;DHT22;2530;47.990;7.866;2023-06-22T05:18:06;19.40;99.90
5023;DHT22;2530;47.990;7.866;2023-06-22T05:20:31;19.00;99.90
5023;DHT22;2530;47.990;7.866;2023-06-22T05:22:58;19.30;99.90
5023;DHT22;2530;47.990;7.866;2023-06-22T05:25:24;19.60;99.90
5023;DHT22;2530;47.990;7.866;2023-06-22T05:27:50;19.50;99.90
5023;DHT22;2530;47.990;7.866;2023-06-22T05:30:17;19.80;99.90
5023;DHT22;2530;47.990;7.866;2023-06-22T05:32:43;19.80;99.90
5023;DHT22;2530;47.990;7.866;2023-06-22T05:35:09;19.90;99.90
5023;DHT22;2530;47.990;7.866;2023-06-22T05:37:35;20.00;99.90
5023;DHT22;2530;47.990;7.866;2023-06-22T05:40:00;20.00;99.90
5023;DHT22;2530;47.990;7.866;2023-06-22T05:42:26;19.90;99.90
5023;DHT22;2530;47.990;7.866;2023-06-22T05:44:52;21.20;99.90
5023;DHT22;2530;47.990;7.866;2023-06-22T05:47:18;19.80;99.90
5023;DHT22;2530;47.990;7.866;2023-06-22T05:49:44;20.30;99.90
5023;DHT22;2530;47.990;7.866;2023-06-22T05:52:09;20.10;99.90
5023;DHT22;2530;47.990;7.866;2023-06-22T05:54:35;20.20;99.90
5023;DHT22;2530;47.990;7.866;2023-06-22T05:57:01;20.20;99.90
5023;DHT22;2530;47.990;7.866;2023-06-22T05:59:26;20.30;99.90
5023;DHT22;2530;47.990;7.866;2023-06-22T06:01:52;20.40;99.90
5023;DHT22;2530;47.990;7.866;2023-06-22T06:04:18;22.10;99.90
5023;DHT22;2530;47.990;7.866;2023-06-22T06:06:44;20.50;99.90
5023;DHT22;2530;47.990;7.866;2023-06-22T06:09:10;20.50;99.90
5023;DHT22;2530;47.990;7.866;2023-06-22T06:11:37;20.80;99.90
5023;DHT22;2530;47.990;7.866;2023-06-22T06:14:02;21.00;99.90
5023;DHT22;2530;47.990;7.866;2023-06-22T06:16:28;21.10;99.90
5023;DHT22;2530;47.990;7.866;2023-06-22T06:18:53;22.70;99.90
5023;DHT22;2530;47.990;7.866;2023-06-22T06:21:21;21.20;99.90
5023;DHT22;2530;47.990;7.866;2023-06-22T06:23:47;21.60;99.90
5023;DHT22;2530;47.990;7.866;2023-06-22T06:26:12;21.20;99.90
5023;DHT22;2530;47.990;7.866;2023-06-22T06:28:38;21.30;99.90
5023;DHT22;2530;47.990;7.866;2023-06-22T06:31:03;20.60;99.90
5023;DHT22;2530;47.990;7.866;2023-06-22T06:33:32;21.20;99.90
5023;DHT22;2530;47.990;7.866;2023-06-22T06:35:58;23.10;99.90
5023;DHT22;2530;47.990;7.866;2023-06-22T06:38:23;21.50;99.90
5023;DHT22;2530;47.990;7.866;2023-06-22T06:40:49;21.60;99.90
5023;DHT22;2530;47.990;7.866;2023-06-22T06:43:14;23.10;99.90
5023;DHT22;2530;47.990;7.866;2023-06-22T06:45:40;21.90;99.90
5023;DHT22;2530;47.990;7.866;2023-06-22T06:48:05;22.90;99.90
5023;DHT22;2530;47.990;7.866;2023-06-22T06:50:31;21.90;99.90
5023;DHT22;2530;47.990;7.866;2023-06-22T06:52:57;21.90;99.90
5023;DHT22;2530;47.990;7.866;2023-06-22T06:55:24;21.80;99.90
5023;DHT22;2530;47.990;7.866;2023-06-22T06:57:50;21.90;99.90
5023;DHT22;2530;47.990;7.866;2023-06-22T07:00:18;21.90;99.90
5023;DHT22;2530;47.990;7.866;2023-06-22T07:02:44;21.90;99.90
5023;DHT22;2530;47.990;7.866;2023-06-22T07:05:12;21.40;99.90
5023;DHT22;2530;47.990;7.866;2023-06-22T07:07:38;22.00;99.90
5023;DHT22;2530;47.990;7.866;2023-06-22T07:10:05;22.10;99.90
5023;DHT22;2530;47.990;7.866;2023-06-22T07:12:30;21.80;99.90
5023;DHT22;2530;47.990;7.866;2023-06-22T07:15:06;21.80;99.90
5023;DHT22;2530;47.990;7.866;2023-06-22T07:17:37;22.20;99.90
5023;DHT22;2530;47.990;7.866;2023-06-22T07:20:04;21.90;99.90
5023;DHT22;2530;47.990;7.866;2023-06-22T07:22:39;22.60;99.90
5023;DHT22;2530;47.990;7.866;2023-06-22T07:25:06;24.10;99.90
5023;DHT22;2530;47.990;7.866;2023-06-22T07:27:36;23.00;99.90
5023;DHT22;2530;47.990;7.866;2023-06-22T07:30:04;23.80;99.90
5023;DHT22;2530;47.990;7.866;2023-06-22T07:32:29;23.10;99.90
5023;DHT22;2530;47.990;7.866;2023-06-22T07:34:55;22.30;99.90
5023;DHT22;2530;47.990;7.866;2023-06-22T07:37:21;22.60;99.90
5023;DHT22;2530;47.990;7.866;2023-06-22T07:39:46;23.40;99.90
5023;DHT22;2530;47.990;7.866;2023-06-22T07:42:12;22.70;99.90
5023;DHT22;2530;47.990;7.866;2023-06-22T07:44:37;22.70;99.90
5023;DHT22;2530;47.990;7.866;2023-06-22T07:47:03;22.70;99.90
5023;DHT22;2530;47.990;7.866;2023-06-22T07:49:29;22.60;99.90
5023;DHT22;2530;47.990;7.866;2023-06-22T07:51:55;23.30;99.90
5023;DHT22;2530;47.990;7.866;2023-06-22T07:54:20;22.70;99.90
5023;DHT22;2530;47.990;7.866;2023-06-22T07:56:46;23.00;99.90
5023;DHT22;2530;47.990;7.866;2023-06-22T07:59:12;23.30;99.90
5023;DHT22;2530;47.990;7.866;2023-06-22T08:01:37;23.30;99.90
5023;DHT22;2530;47.990;7.866;2023-06-22T08:04:03;25.10;99.90
5023;DHT22;2530;47.990;7.866;2023-06-22T08:06:30;23.70;99.90
5023;DHT22;2530;47.990;7.866;2023-06-22T08:08:56;23.90;99.90
5023;DHT22;2530;47.990;7.866;2023-06-22T08:11:24;24.00;99.90
5023;DHT22;2530;47.990;7.866;2023-06-22T08:13:51;24.20;99.90
5023;DHT22;2530;47.990;7.866;2023-06-22T08:16:16;23.80;99.90
5023;DHT22;2530;47.990;7.866;2023-06-22T08:18:42;24.30;99.90
5023;DHT22;2530;47.990;7.866;2023-06-22T08:21:07;24.00;99.90
5023;DHT22;2530;47.990;7.866;2023-06-22T08:23:33;24.50;99.90
5023;DHT22;2530;47.990;7.866;2023-06-22T08:25:58;25.50;99.90
5023;DHT22;2530;47.990;7.866;2023-06-22T08:28:24;24.70;99.90
5023;DHT22;2530;47.990;7.866;2023-06-22T08:30:49;24.70;99.90
5023;DHT22;2530;47.990;7.866;2023-06-22T08:33:15;24.70;99.90
5023;DHT22;2530;47.990;7.866;2023-06-22T08:35:41;25.10;99.90
5023;DHT22;2530;47.990;7.866;2023-06-22T08:38:07;25.10;99.90
5023;DHT22;2530;47.990;7.866;2023-06-22T08:40:34;25.20;99.90
5023;DHT22;2530;47.990;7.866;2023-06-22T08:42:59;25.80;96.30
5023;DHT22;2530;47.990;7.866;2023-06-22T08:45:25;25.40;99.90
5023;DHT22;2530;47.990;7.866;2023-06-22T08:47:50;25.50;99.90
5023;DHT22;2530;47.990;7.866;2023-06-22T08:50:16;25.40;49.00
5023;DHT22;2530;47.990;7.866;2023-06-22T08:52:41;25.50;67.90
5023;DHT22;2530;47.990;7.866;2023-06-22T08:55:08;26.10;57.00
5023;DHT22;2530;47.990;7.866;2023-06-22T08:57:34;25.30;99.90
5023;DHT22;2530;47.990;7.866;2023-06-22T09:00:00;25.40;99.70
5023;DHT22;2530;47.990;7.866;2023-06-22T09:02:26;26.40;99.90
5023;DHT22;2530;47.990;7.866;2023-06-22T09:04:56;25.60;99.90
5023;DHT22;2530;47.990;7.866;2023-06-22T09:07:22;25.70;99.90
5023;DHT22;2530;47.990;7.866;2023-06-22T09:09:49;25.70;99.90
5023;DHT22;2530;47.990;7.866;2023-06-22T09:12:15;26.00;99.90
5023;DHT22;2530;47.990;7.866;2023-06-22T09:14:40;26.10;99.90
5023;DHT22;2530;47.990;7.866;2023-06-22T09:17:06;26.40;61.60
5023;DHT22;2530;47.990;7.866;2023-06-22T09:19:31;26.70;97.30
5023;DHT22;2530;47.990;7.866;2023-06-22T09:21:58;26.70;46.20
5023;DHT22;2530;47.990;7.866;2023-06-22T09:24:23;26.60;4.80
5023;DHT22;2530;47.990;7.866;2023-06-22T09:26:49;26.80;10.10
5023;DHT22;2530;47.990;7.866;2023-06-22T09:29:15;27.00;5.20
5023;DHT22;2530;47.990;7.866;2023-06-22T09:31:41;27.10;2.40
5023;DHT22;2530;47.990;7.866;2023-06-22T09:34:06;27.10;2.70
5023;DHT22;2530;47.990;7.866;2023-06-22T09:36:32;27.10;1.00
5023;DHT22;2530;47.990;7.866;2023-06-22T09:38:57;27.30;1.30
5023;DHT22;2530;47.990;7.866;2023-06-22T09:41:24;27.70;1.00
5023;DHT22;2530;47.990;7.866;2023-06-22T09:43:50;27.70;1.00
5023;DHT22;2530;47.990;7.866;2023-06-22T09:46:16;27.70;1.00
5023;DHT22;2530;47.990;7.866;2023-06-22T09:48:41;27.60;1.00
5023;DHT22;2530;47.990;7.866;2023-06-22T09:51:07;27.90;1.00
5023;DHT22;2530;47.990;7.866;2023-06-22T09:53:33;28.20;1.00
5023;DHT22;2530;47.990;7.866;2023-06-22T09:56:00;28.20;1.00
5023;DHT22;2530;47.990;7.866;2023-06-22T09:58:26;28.20;1.00
5023;DHT22;2530;47.990;7.866;2023-06-22T10:00:51;28.40;1.00
5023;DHT22;2530;47.990;7.866;2023-06-22T10:03:18;28.40;1.00
5023;DHT22;2530;47.990;7.866;2023-06-22T10:05:43;28.50;1.00
5023;DHT22;2530;47.990;7.866;2023-06-22T10:08:09;28.60;1.00
5023;DHT22;2530;47.990;7.866;2023-06-22T10:10:35;28.60;1.00
5023;DHT22;2530;47.990;7.866;2023-06-22T10:13:08;28.80;1.00
5023;DHT22;2530;47.990;7.866;2023-06-22T10:15:37;28.30;1.00
5023;DHT22;2530;47.990;7.866;2023-06-22T10:18:03;28.20;16.20
5023;DHT22;2530;47.990;7.866;2023-06-22T10:20:29;28.40;1.00
5023;DHT22;2530;47.990;7.866;2023-06-22T10:22:54;28.70;1.00
5023;DHT22;2530;47.990;7.866;2023-06-22T10:25:20;28.80;1.00
5023;DHT22;2530;47.990;7.866;2023-06-22T10:27:46;29.10;1.00
5023;DHT22;2530;47.990;7.866;2023-06-22T10:30:12;29.10;1.00
5023;DHT22;2530;47.990;7.866;2023-06-22T10:32:39;28.90;1.00
5023;DHT22;2530;47.990;7.866;2023-06-22T10:35:05;28.50;1.00
5023;DHT22;2530;47.990;7.866;2023-06-22T10:37:31;28.50;1.00
5023;DHT22;2530;47.990;7.866;2023-06-22T10:39:56;28.30;1.00
5023;DHT22;2530;47.990;7.866;2023-06-22T10:42:22;28.30;1.00
5023;DHT22;2530;47.990;7.866;2023-06-22T10:44:48;28.40;1.00
5023;DHT22;2530;47.990;7.866;2023-06-22T10:47:13;28.30;1.00
5023;DHT22;2530;47.990;7.866;2023-06-22T10:49:39;28.50;1.00
5023;DHT22;2530;47.990;7.866;2023-06-22T10:52:08;28.40;1.00
5023;DHT22;2530;47.990;7.866;2023-06-22T10:54:34;28.50;1.00
5023;DHT22;2530;47.990;7.866;2023-06-22T10:57:01;28.60;1.00
5023;DHT22;2530;47.990;7.866;2023-06-22T10:59:26;28.50;1.00
5023;DHT22;2530;47.990;7.866;2023-06-22T11:01:53;28.60;1.00
5023;DHT22;2530;47.990;7.866;2023-06-22T11:04:18;28.60;1.00
5023;DHT22;2530;47.990;7.866;2023-06-22T11:06:44;28.50;1.00
5023;DHT22;2530;47.990;7.866;2023-06-22T11:09:10;28.40;1.00
5023;DHT22;2530;47.990;7.866;2023-06-22T11:11:35;28.00;1.00
5023;DHT22;2530;47.990;7.866;2023-06-22T11:14:01;28.60;1.00
5023;DHT22;2530;47.990;7.866;2023-06-22T11:16:27;28.80;1.00
5023;DHT22;2530;47.990;7.866;2023-06-22T11:18:52;28.90;10.50
5023;DHT22;2530;47.990;7.866;2023-06-22T11:21:18;28.60;1.00
5023;DHT22;2530;47.990;7.866;2023-06-22T11:23:44;28.60;1.70
5023;DHT22;2530;47.990;7.866;2023-06-22T11:26:10;28.90;1.00
5023;DHT22;2530;47.990;7.866;2023-06-22T11:28:35;29.30;1.00
5023;DHT22;2530;47.990;7.866;2023-06-22T11:31:01;29.20;1.00
5023;DHT22;2530;47.990;7.866;2023-06-22T11:33:27;29.60;1.00
5023;DHT22;2530;47.990;7.866;2023-06-22T11:35:52;29.70;1.00
5023;DHT22;2530;47.990;7.866;2023-06-22T11:38:18;29.60;1.00
5023;DHT22;2530;47.990;7.866;2023-06-22T11:40:43;29.40;1.00
5023;DHT22;2530;47.990;7.866;2023-06-22T11:43:09;29.10;1.00
5023;DHT22;2530;47.990;7.866;2023-06-22T11:45:34;28.90;1.00
5023;DHT22;2530;47.990;7.866;2023-06-22T11:48:00;28.80;1.00
5023;DHT22;2530;47.990;7.866;2023-06-22T11:50:26;28.70;1.00
5023;DHT22;2530;47.990;7.866;2023-06-22T11:52:51;28.20;6.30
5023;DHT22;2530;47.990;7.866;2023-06-22T11:55:18;28.40;8.10
5023;DHT22;2530;47.990;7.866;2023-06-22T11:57:55;28.50;8.40
5023;DHT22;2530;47.990;7.866;2023-06-22T12:00:21;28.50;15.00
5023;DHT22;2530;47.990;7.866;2023-06-22T12:02:49;28.60;1.00
5023;DHT22;2530;47.990;7.866;2023-06-22T12:05:17;28.60;1.00
5023;DHT22;2530;47.990;7.866;2023-06-22T12:07:43;28.60;5.80
5023;DHT22;2530;47.990;7.866;2023-06-22T12:10:09;28.50;17.70
5023;DHT22;2530;47.990;7.866;2023-06-22T12:12:35;28.50;1.00
5023;DHT22;2530;47.990;7.866;2023-06-22T12:15:00;28.50;1.00
5023;DHT22;2530;47.990;7.866;2023-06-22T12:17:29;28.70;1.00
5023;DHT22;2530;47.990;7.866;2023-06-22T12:19:55;28.60;1.00
5023;DHT22;2530;47.990;7.866;2023-06-22T12:22:20;28.60;1.00
5023;DHT22;2530;47.990;7.866;2023-06-22T12:24:46;28.70;1.00
5023;DHT22;2530;47.990;7.866;2023-06-22T12:27:11;29.40;1.00
5023;DHT22;2530;47.990;7.866;2023-06-22T12:29:37;28.60;1.00
5023;DHT22;2530;47.990;7.866;2023-06-22T12:32:03;27.70;5.10
5023;DHT22;2530;47.990;7.866;2023-06-22T12:34:28;27.90;21.60
5023;DHT22;2530;47.990;7.866;2023-06-22T12:36:54;27.60;39.80
5023;DHT22;2530;47.990;7.866;2023-06-22T12:39:20;27.50;66.60
5023;DHT22;2530;47.990;7.866;2023-06-22T12:41:45;27.50;60.30
5023;DHT22;2530;47.990;7.866;2023-06-22T12:44:11;27.50;30.20
5023;DHT22;2530;47.990;7.866;2023-06-22T12:46:36;27.50;23.10
5023;DHT22;2530;47.990;7.866;2023-06-22T12:49:04;27.40;31.80
5023;DHT22;2530;47.990;7.866;2023-06-22T12:51:30;27.60;29.70
5023;DHT22;2530;47.990;7.866;2023-06-22T12:53:56;26.90;38.10
5023;DHT22;2530;47.990;7.866;2023-06-22T12:56:22;27.40;56.20
5023;DHT22;2530;47.990;7.866;2023-06-22T12:58:47;27.40;42.80
5023;DHT22;2530;47.990;7.866;2023-06-22T13:01:13;27.40;37.10
5023;DHT22;2530;47.990;7.866;2023-06-22T13:03:39;26.80;29.70
5023;DHT22;2530;47.990;7.866;2023-06-22T13:06:05;27.30;35.90
5023;DHT22;2530;47.990;7.866;2023-06-22T13:08:30;27.30;45.30
5023;DHT22;2530;47.990;7.866;2023-06-22T13:10:56;27.40;20.10
5023;DHT22;2530;47.990;7.866;2023-06-22T13:13:25;27.30;26.50
5023;DHT22;2530;47.990;7.866;2023-06-22T13:15:52;27.30;21.10
5023;DHT22;2530;47.990;7.866;2023-06-22T13:18:19;27.10;35.40
5023;DHT22;2530;47.990;7.866;2023-06-22T13:20:45;27.20;34.50
5023;DHT22;2530;47.990;7.866;2023-06-22T13:23:11;27.10;22.90
5023;DHT22;2530;47.990;7.866;2023-06-22T13:25:36;27.20;21.30
5023;DHT22;2530;47.990;7.866;2023-06-22T13:28:02;27.40;19.00
5023;DHT22;2530;47.990;7.866;2023-06-22T13:30:27;27.30;1.00
5023;DHT22;2530;47.990;7.866;2023-06-22T13:32:53;27.70;1.00
5023;DHT22;2530;47.990;7.866;2023-06-22T13:35:19;27.30;4.40
5023;DHT22;2530;47.990;7.866;2023-06-22T13:37:44;27.30;1.00
5023;DHT22;2530;47.990;7.866;2023-06-22T13:40:10;27.20;1.00
5023;DHT22;2530;47.990;7.866;2023-06-22T13:42:36;27.20;1.00
5023;DHT22;2530;47.990;7.866;2023-06-22T13:45:02;27.10;1.00
5023;DHT22;2530;47.990;7.866;2023-06-22T13:47:28;27.30;1.00
5023;DHT22;2530;47.990;7.866;2023-06-22T13:49:54;27.10;1.00
5023;DHT22;2530;47.990;7.866;2023-06-22T13:52:19;26.90;1.00
5023;DHT22;2530;47.990;7.866;2023-06-22T13:54:45;26.70;1.00
5023;DHT22;2530;47.990;7.866;2023-06-22T13:57:10;26.50;1.00
5023;DHT22;2530;47.990;7.866;2023-06-22T13:59:36;26.50;1.00
5023;DHT22;2530;47.990;7.866;2023-06-22T14:02:01;25.80;10.60
5023;DHT22;2530;47.990;7.866;2023-06-22T14:04:27;26.10;3.10
5023;DHT22;2530;47.990;7.866;2023-06-22T14:06:54;26.10;23.50
5023;DHT22;2530;47.990;7.866;2023-06-22T14:09:21;26.00;36.90
5023;DHT22;2530;47.990;7.866;2023-06-22T14:11:46;26.20;1.90
5023;DHT22;2530;47.990;7.866;2023-06-22T14:14:12;26.10;35.70
5023;DHT22;2530;47.990;7.866;2023-06-22T14:16:37;26.00;43.30
5023;DHT22;2530;47.990;7.866;2023-06-22T14:19:03;26.00;11.00
5023;DHT22;2530;47.990;7.866;2023-06-22T14:21:29;26.10;12.30
5023;DHT22;2530;47.990;7.866;2023-06-22T14:23:54;26.30;4.90
5023;DHT22;2530;47.990;7.866;2023-06-22T14:26:20;26.40;17.50
5023;DHT22;2530;47.990;7.866;2023-06-22T14:28:46;26.60;24.90
5023;DHT22;2530;47.990;7.866;2023-06-22T14:31:17;27.30;1.00
5023;DHT22;2530;47.990;7.866;2023-06-22T14:33:46;26.90;28.50
5023;DHT22;2530;47.990;7.866;2023-06-22T14:36:12;26.70;22.10
5023;DHT22;2530;47.990;7.866;2023-06-22T14:38:38;26.60;19.60
5023;DHT22;2530;47.990;7.866;2023-06-22T14:41:03;26.50;67.20
5023;DHT22;2530;47.990;7.866;2023-06-22T14:43:29;26.70;1.00
5023;DHT22;2530;47.990;7.866;2023-06-22T14:45:54;27.80;4.80
5023;DHT22;2530;47.990;7.866;2023-06-22T14:48:20;28.80;1.00
5023;DHT22;2530;47.990;7.866;2023-06-22T14:50:45;29.30;1.00
5023;DHT22;2530;47.990;7.866;2023-06-22T14:53:11;30.20;1.00
5023;DHT22;2530;47.990;7.866;2023-06-22T14:55:37;29.80;1.00
5023;DHT22;2530;47.990;7.866;2023-06-22T14:58:02;28.90;1.00
5023;DHT22;2530;47.990;7.866;2023-06-22T15:00:28;28.40;1.00
5023;DHT22;2530;47.990;7.866;2023-06-22T15:02:53;28.10;1.00
5023;DHT22;2530;47.990;7.866;2023-06-22T15:05:19;28.00;1.00
5023;DHT22;2530;47.990;7.866;2023-06-22T15:07:44;27.90;1.00
5023;DHT22;2530;47.990;7.866;2023-06-22T15:10:10;27.90;1.00
5023;DHT22;2530;47.990;7.866;2023-06-22T15:12:36;27.80;1.00
5023;DHT22;2530;47.990;7.866;2023-06-22T15:15:01;28.00;1.00
5023;DHT22;2530;47.990;7.866;2023-06-22T15:17:27;28.20;1.00
5023;DHT22;2530;47.990;7.866;2023-06-22T15:19:57;28.20;1.00
5023;DHT22;2530;47.990;7.866;2023-06-22T15:22:23;28.50;1.00
5023;DHT22;2530;47.990;7.866;2023-06-22T15:24:49;28.70;1.00
5023;DHT22;2530;47.990;7.866;2023-06-22T15:27:14;28.60;1.00
5023;DHT22;2530;47.990;7.866;2023-06-22T15:29:40;28.80;1.00
5023;DHT22;2530;47.990;7.866;2023-06-22T15:32:07;28.70;1.00
5023;DHT22;2530;47.990;7.866;2023-06-22T15:34:32;28.90;1.00
5023;DHT22;2530;47.990;7.866;2023-06-22T15:36:59;28.70;1.00
5023;DHT22;2530;47.990;7.866;2023-06-22T15:39:24;28.60;1.00
5023;DHT22;2530;47.990;7.866;2023-06-22T15:41:55;29.00;1.00
5023;DHT22;2530;47.990;7.866;2023-06-22T15:44:21;28.20;1.00
5023;DHT22;2530;47.990;7.866;2023-06-22T15:46:47;28.00;1.00
5023;DHT22;2530;47.990;7.866;2023-06-22T15:49:14;28.00;1.00
5023;DHT22;2530;47.990;7.866;2023-06-22T15:51:40;28.30;1.00
5023;DHT22;2530;47.990;7.866;2023-06-22T15:54:05;27.90;1.00
5023;DHT22;2530;47.990;7.866;2023-06-22T15:56:31;27.90;1.00
5023;DHT22;2530;47.990;7.866;2023-06-22T15:58:56;27.80;1.00
5023;DHT22;2530;47.990;7.866;2023-06-22T16:01:23;27.60;1.00
5023;DHT22;2530;47.990;7.866;2023-06-22T16:03:53;27.50;1.00
5023;DHT22;2530;47.990;7.866;2023-06-22T16:06:19;27.40;1.00
5023;DHT22;2530;47.990;7.866;2023-06-22T16:08:44;27.30;1.00
5023;DHT22;2530;47.990;7.866;2023-06-22T16:11:10;27.30;1.00
5023;DHT22;2530;47.990;7.866;2023-06-22T16:13:36;27.10;1.00